sensor_id;sensor_type;location;lat;lon;timestamp;P1;P2;P0
74430;PMS7003;62863;52.062;23.764;2023-09-19T00:00:51;24.6;21.6;15.2
74430;PMS7003;62863;52.062;23.764;2023-09-19T00:06:17;23.4;20.6;14
74430;PMS7003;62863;52.062;23.764;2023-09-19T00:11:33;23;20;14.4
74430;PMS7003;62863;52.062;23.764;2023-09-19T00:15:57;23.4;20.8;15.8
74430;PMS7003;62863;52.062;23.764;2023-09-19T00:20:51;23.6;21.2;14.4
74430;PMS7003;62863;52.062;23.764;2023-09-19T00:25:58;23.4;21;14.6
74430;PMS7003;62863;52.062;23.764;2023-09-19T00:31:33;24.8;21.4;14.8
74430;PMS7003;62863;52.062;23.764;2023-09-19T00:36:33;22.4;20.6;14.6
74430;PMS7003;62863;52.062;23.764;2023-09-19T00:41:17;21.5;19.5;14
74430;PMS7003;62863;52.062;23.764;2023-09-19T00:46:17;22.2;20.2;14.2
74430;PMS7003;62863;52.062;23.764;2023-09-19T00:51:09;24.2;19.8;14
74430;PMS7003;62863;52.062;23.764;2023-09-19T00:55:51;23.2;19.6;14
74430;PMS7003;62863;52.062;23.764;2023-09-19T01:01:31;22.8;19.2;13.6
74430;PMS7003;62863;52.062;23.764;2023-09-19T01:05:55;21.8;19.6;14.2
74430;PMS7003;62863;52.062;23.764;2023-09-19T01:11:17;24;20.2;14.2
74430;PMS7003;62863;52.062;23.764;2023-09-19T01:15:53;21.8;20;14.4
74430;PMS7003;62863;52.062;23.764;2023-09-19T01:21:21;25;21.2;15.2
74430;PMS7003;62863;52.062;23.764;2023-09-19T01:26:36;25.4;21.2;14.2
74430;PMS7003;62863;52.062;23.764;2023-09-19T01:31:09;25.4;21.6;14.8
74430;PMS7003;62863;52.062;23.764;2023-09-19T01:36:15;24.2;20.8;13.8
74430;PMS7003;62863;52.062;23.764;2023-09-19T01:41:26;24.8;22;16.3
74430;PMS7003;62863;52.062;23.764;2023-09-19T01:45:53;23.2;20.4;14.8
74430;PMS7003;62863;52.062;23.764;2023-09-19T01:51:33;25.4;21.8;15.6
74430;PMS7003;62863;52.062;23.764;2023-09-19T01:55:57;26.2;23;15.6
74430;PMS7003;62863;52.062;23.764;2023-09-19T02:00:51;22.8;21;14.2
74430;PMS7003;62863;52.062;23.764;2023-09-19T02:06:05;24.8;22;15.4
74430;PMS7003;62863;52.062;23.764;2023-09-19T02:11:13;23.4;22;15.2
74430;PMS7003;62863;52.062;23.764;2023-09-19T02:16:31;23.6;21;15
74430;PMS7003;62863;52.062;23.764;2023-09-19T02:21:07;25;22;15.2
74430;PMS7003;62863;52.062;23.764;2023-09-19T02:26:15;24.6;21.2;14.6
74430;PMS7003;62863;52.062;23.764;2023-09-19T02:31:07;25;21.2;14.6
74430;PMS7003;62863;52.062;23.764;2023-09-19T02:36:13;29;24;16.6
74430;PMS7003;62863;52.062;23.764;2023-09-19T02:41:17;26;23.5;16.3
74430;PMS7003;62863;52.062;23.764;2023-09-19T02:46:23;27.2;24.2;16.6
74430;PMS7003;62863;52.062;23.764;2023-09-19T02:50:51;29;26;18.6
74430;PMS7003;62863;52.062;23.764;2023-09-19T02:56:09;27;24;17
74430;PMS7003;62863;52.062;23.764;2023-09-19T03:01:17;29.2;26;18.4
74430;PMS7003;62863;52.062;23.764;2023-09-19T03:06:29;28.2;26.4;17.8
74430;PMS7003;62863;52.062;23.764;2023-09-19T03:11:31;32;27.8;17.6
74430;PMS7003;62863;52.062;23.764;2023-09-19T03:16:15;30.4;27.6;18
74430;PMS7003;62863;52.062;23.764;2023-09-19T03:21:15;30.4;26;17.8
74430;PMS7003;62863;52.062;23.764;2023-09-19T03:25:51;31.4;27.4;18.6
74430;PMS7003;62863;52.062;23.764;2023-09-19T03:31:04;29.4;26.8;18.6
74430;PMS7003;62863;52.062;23.764;2023-09-19T03:35:51;33.4;28.6;19
74430;PMS7003;62863;52.062;23.764;2023-09-19T03:40:51;27.5;24.3;16.8
74430;PMS7003;62863;52.062;23.764;2023-09-19T03:46:31;31.8;27.2;18.6
74430;PMS7003;62863;52.062;23.764;2023-09-19T03:51:03;34.8;28.6;19.4
74430;PMS7003;62863;52.062;23.764;2023-09-19T03:56:31;31.6;28.2;19.8
74430;PMS7003;62863;52.062;23.764;2023-09-19T04:01:29;36;28.8;20.6
74430;PMS7003;62863;52.062;23.764;2023-09-19T04:06:13;33;29.6;20
74430;PMS7003;62863;52.062;23.764;2023-09-19T04:11:09;40.4;32.4;21
74430;PMS7003;62863;52.062;23.764;2023-09-19T04:16:01;28.4;26.6;19
74430;PMS7003;62863;52.062;23.764;2023-09-19T04:21:09;34.2;28.6;19.4
74430;PMS7003;62863;52.062;23.764;2023-09-19T04:25:51;31;27.2;19.8
74430;PMS7003;62863;52.062;23.764;2023-09-19T04:30:51;30.4;26.4;18.6
74430;PMS7003;62863;52.062;23.764;2023-09-19T04:36:31;30.4;27.4;19.4
74430;PMS7003;62863;52.062;23.764;2023-09-19T04:41:09;29.8;25.6;18
74430;PMS7003;62863;52.062;23.764;2023-09-19T04:46:31;28;25.5;18.5
74430;PMS7003;62863;52.062;23.764;2023-09-19T04:51:31;31.4;25.8;17.6
74430;PMS7003;62863;52.062;23.764;2023-09-19T04:56:29;31;25.8;17.6
74430;PMS7003;62863;52.062;23.764;2023-09-19T05:01:15;31.2;26.2;17
74430;PMS7003;62863;52.062;23.764;2023-09-19T05:06:03;30.6;26.8;17.8
74430;PMS7003;62863;52.062;23.764;2023-09-19T05:11:05;28;24.8;18.2
74430;PMS7003;62863;52.062;23.764;2023-09-19T05:16:09;26;24.2;16.8
74430;PMS7003;62863;52.062;23.764;2023-09-19T05:20:51;26.4;23.8;16.4
74430;PMS7003;62863;52.062;23.764;2023-09-19T05:26:31;29.8;24.2;16.4
74430;PMS7003;62863;52.062;23.764;2023-09-19T05:30:57;25.4;22.2;16.2
74430;PMS7003;62863;52.062;23.764;2023-09-19T05:36:29;23;22;16
74430;PMS7003;62863;52.062;23.764;2023-09-19T05:41:27;28;23.4;16
74430;PMS7003;62863;52.062;23.764;2023-09-19T05:46:11;22;18.5;13
74430;PMS7003;62863;52.062;23.764;2023-09-19T05:51:13;22.2;20.6;14.6
74430;PMS7003;62863;52.062;23.764;2023-09-19T05:55:51;19;17.4;12.2
74430;PMS7003;62863;52.062;23.764;2023-09-19T06:01:13;18.2;16.6;12
74430;PMS7003;62863;52.062;23.764;2023-09-19T06:05:57;18.4;16;11.6
74430;PMS7003;62863;52.062;23.764;2023-09-19T06:11:03;17.6;15.8;11.2
74430;PMS7003;62863;52.062;23.764;2023-09-19T06:16:33;17;15;11.4
74430;PMS7003;62863;52.062;23.764;2023-09-19T06:21:05;18.6;16.2;12.2
74430;PMS7003;62863;52.062;23.764;2023-09-19T06:26:33;15.8;15.2;12.4
74430;PMS7003;62863;52.062;23.764;2023-09-19T06:31:31;20.2;18;12.2
74430;PMS7003;62863;52.062;23.764;2023-09-19T06:36:13;19;17.8;13
74430;PMS7003;62863;52.062;23.764;2023-09-19T06:41:17;18.4;15;11.4
74430;PMS7003;62863;52.062;23.764;2023-09-19T06:45:57;19;16.8;12.5
74430;PMS7003;62863;52.062;23.764;2023-09-19T06:51:15;16.8;14.8;10.6
74430;PMS7003;62863;52.062;23.764;2023-09-19T06:55:51;17.2;15;11.6
74430;PMS7003;62863;52.062;23.764;2023-09-19T07:00:51;16.2;14.2;10.4
74430;PMS7003;62863;52.062;23.764;2023-09-19T07:06:25;18.2;16.4;12.2
74430;PMS7003;62863;52.062;23.764;2023-09-19T07:11:10;21.4;19.4;13.6
74430;PMS7003;62863;52.062;23.764;2023-09-19T07:16:29;24.6;21.2;14.6
74430;PMS7003;62863;52.062;23.764;2023-09-19T07:21:31;24.2;22;14.4
74430;PMS7003;62863;52.062;23.764;2023-09-19T07:26:33;21.2;16.8;12.4
74430;PMS7003;62863;52.062;23.764;2023-09-19T07:31:31;18.2;16.4;11.6
74430;PMS7003;62863;52.062;23.764;2023-09-19T07:35:51;20.2;17.4;12.4
74430;PMS7003;62863;52.062;23.764;2023-09-19T07:40:51;20.8;17.2;11.4
74430;PMS7003;62863;52.062;23.764;2023-09-19T07:46:19;15.3;14.5;10.5
74430;PMS7003;62863;52.062;23.764;2023-09-19T07:50:51;20.6;17.8;12
74430;PMS7003;62863;52.062;23.764;2023-09-19T07:56:25;15.8;14.2;10
74430;PMS7003;62863;52.062;23.764;2023-09-19T08:01:05;13.4;12;9
74430;PMS7003;62863;52.062;23.764;2023-09-19T08:06:31;14.6;12.6;9.2
74430;PMS7003;62863;52.062;23.764;2023-09-19T08:11:23;14.4;12.8;9.4
74430;PMS7003;62863;52.062;23.764;2023-09-19T08:16:33;10.4;10;7.8
74430;PMS7003;62863;52.062;23.764;2023-09-19T08:21:33;11.6;10.8;8
74430;PMS7003;62863;52.062;23.764;2023-09-19T08:25:55;12;11.2;9
74430;PMS7003;62863;52.062;23.764;2023-09-19T08:31:00;14.4;11.8;8.6
74430;PMS7003;62863;52.062;23.764;2023-09-19T08:35:51;13.4;12;8.8
74430;PMS7003;62863;52.062;23.764;2023-09-19T08:40:57;14.8;12.8;7.6
74430;PMS7003;62863;52.062;23.764;2023-09-19T08:45:54;12.5;12;8.3
74430;PMS7003;62863;52.062;23.764;2023-09-19T08:51:06;14.2;11.8;9
74430;PMS7003;62863;52.062;23.764;2023-09-19T08:56:17;15.4;12.4;8.6
74430;PMS7003;62863;52.062;23.764;2023-09-19T09:01:11;13.6;12;8.6
74430;PMS7003;62863;52.062;23.764;2023-09-19T09:06:33;12.4;10.8;7.6
74430;PMS7003;62863;52.062;23.764;2023-09-19T09:11:33;14.4;12.6;8.8
74430;PMS7003;62863;52.062;23.764;2023-09-19T09:16:33;13.2;11.6;8.8
74430;PMS7003;62863;52.062;23.764;2023-09-19T09:20:51;11.6;11;8
74430;PMS7003;62863;52.062;23.764;2023-09-19T09:25:51;13.2;11.6;8.4
74430;PMS7003;62863;52.062;23.764;2023-09-19T09:30:51;14.8;13.6;9.4
74430;PMS7003;62863;52.062;23.764;2023-09-19T09:36:33;11.6;11.6;8.6
74430;PMS7003;62863;52.062;23.764;2023-09-19T09:41:07;15.4;11.8;9
74430;PMS7003;62863;52.062;23.764;2023-09-19T09:46:33;11;9.3;7
74430;PMS7003;62863;52.062;23.764;2023-09-19T09:51:33;13.4;11;8.8
74430;PMS7003;62863;52.062;23.764;2023-09-19T09:56:21;12.8;11.2;7.4
74430;PMS7003;62863;52.062;23.764;2023-09-19T10:01:05;10.8;10;7.4
74430;PMS7003;62863;52.062;23.764;2023-09-19T10:06:03;13.6;12.8;9.2
74430;PMS7003;62863;52.062;23.764;2023-09-19T10:10:51;13;12;8.6
74430;PMS7003;62863;52.062;23.764;2023-09-19T10:15:51;15;13.4;10
74430;PMS7003;62863;52.062;23.764;2023-09-19T10:20:51;14.6;13.2;9.2
74430;PMS7003;62863;52.062;23.764;2023-09-19T10:26:25;12.4;12;8.8
74430;PMS7003;62863;52.062;23.764;2023-09-19T10:31:19;14.2;12.4;9.2
74430;PMS7003;62863;52.062;23.764;2023-09-19T10:36:33;14.2;11.8;8.6
74430;PMS7003;62863;52.062;23.764;2023-09-19T10:41:25;12.6;11;8.4
74430;PMS7003;62863;52.062;23.764;2023-09-19T10:46:33;12;9.8;7.4
74430;PMS7003;62863;52.062;23.764;2023-09-19T10:51:37;12;11.3;8
74430;PMS7003;62863;52.062;23.764;2023-09-19T10:55:59;10.2;9.4;7.2
74430;PMS7003;62863;52.062;23.764;2023-09-19T11:00:51;11;10;7.6
74430;PMS7003;62863;52.062;23.764;2023-09-19T11:06:01;11.4;10.4;7.6
74430;PMS7003;62863;52.062;23.764;2023-09-19T11:10:51;11;9.8;7.8
74430;PMS7003;62863;52.062;23.764;2023-09-19T11:16:25;9.8;8.4;6.8
74430;PMS7003;62863;52.062;23.764;2023-09-19T11:21:38;9;8;6.4
74430;PMS7003;62863;52.062;23.764;2023-09-19T11:26:39;10.8;9.4;6.6
74430;PMS7003;62863;52.062;23.764;2023-09-19T11:31:41;16.2;13.6;8.6
74430;PMS7003;62863;52.062;23.764;2023-09-19T11:36:19;14.2;11.2;8.2
74430;PMS7003;62863;52.062;23.764;2023-09-19T11:41:39;19.6;16.4;11
74430;PMS7003;62863;52.062;23.764;2023-09-19T11:46:13;11.4;11;7.8
74430;PMS7003;62863;52.062;23.764;2023-09-19T11:51:11;13.3;11.5;8
74430;PMS7003;62863;52.062;23.764;2023-09-19T11:56:13;13.8;12.8;10.6
74430;PMS7003;62863;52.062;23.764;2023-09-19T12:01:12;13.6;12;9.4
74430;PMS7003;62863;52.062;23.764;2023-09-19T12:06:33;15.4;13.2;9.6
74430;PMS7003;62863;52.062;23.764;2023-09-19T12:10:51;11.6;10.6;7.6
74430;PMS7003;62863;52.062;23.764;2023-09-19T12:16:15;14.2;11.6;8.6
74430;PMS7003;62863;52.062;23.764;2023-09-19T12:21:26;11.4;10.2;7.8
74430;PMS7003;62863;52.062;23.764;2023-09-19T12:26:19;12.8;11.8;9
74430;PMS7003;62863;52.062;23.764;2023-09-19T12:31:31;12.4;11.4;8.6
74430;PMS7003;62863;52.062;23.764;2023-09-19T12:36:20;16;13.6;10
74430;PMS7003;62863;52.062;23.764;2023-09-19T12:40:51;20;16.6;10.4
74430;PMS7003;62863;52.062;23.764;2023-09-19T12:46:19;21.4;19;12.4
74430;PMS7003;62863;52.062;23.764;2023-09-19T12:51:11;16.3;14.8;10.3
74430;PMS7003;62863;52.062;23.764;2023-09-19T12:56:39;11.8;11;7.8
74430;PMS7003;62863;52.062;23.764;2023-09-19T13:00:51;20.4;16;10.4
74430;PMS7003;62863;52.062;23.764;2023-09-19T13:06:07;19;17.2;11.8
74430;PMS7003;62863;52.062;23.764;2023-09-19T13:11:14;21;18.6;12.8
74430;PMS7003;62863;52.062;23.764;2023-09-19T13:16:19;21.2;17.2;11.8
74430;PMS7003;62863;52.062;23.764;2023-09-19T13:21:33;14.4;12.6;9.6
74430;PMS7003;62863;52.062;23.764;2023-09-19T13:26:19;17.8;15.4;10.2
74430;PMS7003;62863;52.062;23.764;2023-09-19T13:31:03;22.2;19.6;12.2
74430;PMS7003;62863;52.062;23.764;2023-09-19T13:35:57;19.4;16.6;11.2
74430;PMS7003;62863;52.062;23.764;2023-09-19T13:41:12;14;13.2;9.6
74430;PMS7003;62863;52.062;23.764;2023-09-19T13:46:33;18.2;15.8;11.6
74430;PMS7003;62863;52.062;23.764;2023-09-19T13:51:33;21;19;13.3
74430;PMS7003;62863;52.062;23.764;2023-09-19T13:55:57;37.8;30;19.4
74430;PMS7003;62863;52.062;23.764;2023-09-19T14:01:25;23.6;21;13
74430;PMS7003;62863;52.062;23.764;2023-09-19T14:06:19;22.4;19.6;12.6
74430;PMS7003;62863;52.062;23.764;2023-09-19T14:11:33;19.2;16.4;12
74430;PMS7003;62863;52.062;23.764;2023-09-19T14:16:13;33.8;27;17.8
74430;PMS7003;62863;52.062;23.764;2023-09-19T14:21:03;38;30.6;19
74430;PMS7003;62863;52.062;23.764;2023-09-19T14:25:51;21.4;19.6;13.6
74430;PMS7003;62863;52.062;23.764;2023-09-19T14:31:09;31.8;27.6;16.6
74430;PMS7003;62863;52.062;23.764;2023-09-19T14:36:27;33.4;28;18.4
74430;PMS7003;62863;52.062;23.764;2023-09-19T14:41:11;33.6;30;20
74430;PMS7003;62863;52.062;23.764;2023-09-19T14:45:51;26.2;24.2;17.4
74430;PMS7003;62863;52.062;23.764;2023-09-19T14:51:23;19.3;17.8;13.3
74430;PMS7003;62863;52.062;23.764;2023-09-19T14:56:19;23;20.2;13.8
74430;PMS7003;62863;52.062;23.764;2023-09-19T15:01:33;29.4;26.6;18.2
74430;PMS7003;62863;52.062;23.764;2023-09-19T15:05:58;35.4;31.2;20.2
74430;PMS7003;62863;52.062;23.764;2023-09-19T15:10:51;29.6;26.8;17.6
74430;PMS7003;62863;52.062;23.764;2023-09-19T15:15:59;27;25.2;16.6
74430;PMS7003;62863;52.062;23.764;2023-09-19T15:21:10;33.8;28;18.8
74430;PMS7003;62863;52.062;23.764;2023-09-19T15:26:33;29.6;27.6;19
74430;PMS7003;62863;52.062;23.764;2023-09-19T15:31:21;23.2;20.6;14.4
74430;PMS7003;62863;52.062;23.764;2023-09-19T15:36:10;25.8;22.4;14.8
74430;PMS7003;62863;52.062;23.764;2023-09-19T15:41:13;27.8;25.4;17.8
74430;PMS7003;62863;52.062;23.764;2023-09-19T15:46:17;23;20.8;14.4
74430;PMS7003;62863;52.062;23.764;2023-09-19T15:51:30;28;25.6;17.6
74430;PMS7003;62863;52.062;23.764;2023-09-19T15:55:51;27.3;24;16.3
74430;PMS7003;62863;52.062;23.764;2023-09-19T16:00:51;30.2;24.4;16
74430;PMS7003;62863;52.062;23.764;2023-09-19T16:05:51;48.8;38.8;24.4
74430;PMS7003;62863;52.062;23.764;2023-09-19T16:10:59;38.2;31.6;21.2
74430;PMS7003;62863;52.062;23.764;2023-09-19T16:16:33;33.6;29.4;19.4
74430;PMS7003;62863;52.062;23.764;2023-09-19T16:20:53;29;24.8;17.8
74430;PMS7003;62863;52.062;23.764;2023-09-19T16:26:17;27.2;24.2;17.4
74430;PMS7003;62863;52.062;23.764;2023-09-19T16:31:23;21.6;20.2;13.8
74430;PMS7003;62863;52.062;23.764;2023-09-19T16:36:19;19.8;17;12.6
74430;PMS7003;62863;52.062;23.764;2023-09-19T16:41:33;20;18;13
74430;PMS7003;62863;52.062;23.764;2023-09-19T16:45:52;19;17.8;12.6
74430;PMS7003;62863;52.062;23.764;2023-09-19T16:50:59;19;17.8;13.2
74430;PMS7003;62863;52.062;23.764;2023-09-19T16:55:51;23;21;14
74430;PMS7003;62863;52.062;23.764;2023-09-19T17:01:11;22.4;19.4;14
74430;PMS7003;62863;52.062;23.764;2023-09-19T17:06:33;22;18.4;13.6
74430;PMS7003;62863;52.062;23.764;2023-09-19T17:11:23;23.4;20.8;14.4
74430;PMS7003;62863;52.062;23.764;2023-09-19T17:16:10;23;20.2;14.4
74430;PMS7003;62863;52.062;23.764;2023-09-19T17:21:25;21.6;18.8;13.8
74430;PMS7003;62863;52.062;23.764;2023-09-19T17:26:19;20.4;18.6;13.6
74430;PMS7003;62863;52.062;23.764;2023-09-19T17:31:33;23.8;20.8;14.6
74430;PMS7003;62863;52.062;23.764;2023-09-19T17:35:51;23.8;21.4;15.4
74430;PMS7003;62863;52.062;23.764;2023-09-19T17:41:00;23.2;19.8;13.8
74430;PMS7003;62863;52.062;23.764;2023-09-19T17:45:51;20.4;19.2;13.6
74430;PMS7003;62863;52.062;23.764;2023-09-19T17:50:59;20.4;18.2;13.8
74430;PMS7003;62863;52.062;23.764;2023-09-19T17:56:33;22.8;20.8;14.5
74430;PMS7003;62863;52.062;23.764;2023-09-19T18:01:06;20.4;18.8;13.8
74430;PMS7003;62863;52.062;23.764;2023-09-19T18:05:57;21.6;19.6;14.4
74430;PMS7003;62863;52.062;23.764;2023-09-19T18:11:11;21.4;19.6;14.6
74430;PMS7003;62863;52.062;23.764;2023-09-19T18:16:07;22.2;20;15
74430;PMS7003;62863;52.062;23.764;2023-09-19T18:21:35;28.4;25.8;16.2
74430;PMS7003;62863;52.062;23.764;2023-09-19T18:25:55;24.6;22;16.2
74430;PMS7003;62863;52.062;23.764;2023-09-19T18:31:04;29;25.4;17.8
74430;PMS7003;62863;52.062;23.764;2023-09-19T18:35:51;30.2;26.2;17.6
74430;PMS7003;62863;52.062;23.764;2023-09-19T18:40:58;27.4;25.8;17.4
74430;PMS7003;62863;52.062;23.764;2023-09-19T18:46:35;32;26;17.4
74430;PMS7003;62863;52.062;23.764;2023-09-19T18:51:25;29.2;25.2;17.6
74430;PMS7003;62863;52.062;23.764;2023-09-19T18:56:19;31.3;27.8;19.5
74430;PMS7003;62863;52.062;23.764;2023-09-19T19:01:23;32;29.2;19.6
74430;PMS7003;62863;52.062;23.764;2023-09-19T19:06:21;29.2;27;17.6
74430;PMS7003;62863;52.062;23.764;2023-09-19T19:11:08;28.6;25.6;17.8
74430;PMS7003;62863;52.062;23.764;2023-09-19T19:15:51;27.4;24.4;16.8
74430;PMS7003;62863;52.062;23.764;2023-09-19T19:21:12;33.8;28.6;20
74430;PMS7003;62863;52.062;23.764;2023-09-19T19:26:22;30;26.4;17.8
74430;PMS7003;62863;52.062;23.764;2023-09-19T19:31:35;32.6;28.8;19.4
74430;PMS7003;62863;52.062;23.764;2023-09-19T19:36:21;28.8;25.6;17
74430;PMS7003;62863;52.062;23.764;2023-09-19T19:41:17;29.2;26.2;17
74430;PMS7003;62863;52.062;23.764;2023-09-19T19:46:09;32.6;27.6;18.4
74430;PMS7003;62863;52.062;23.764;2023-09-19T19:51:05;24;22.2;14.4
74430;PMS7003;62863;52.062;23.764;2023-09-19T19:56:29;24;22.5;16.3
74430;PMS7003;62863;52.062;23.764;2023-09-19T20:01:21;23.6;20.8;14.2
74430;PMS7003;62863;52.062;23.764;2023-09-19T20:05:57;21.4;18;12.8
74430;PMS7003;62863;52.062;23.764;2023-09-19T20:11:01;23;20.4;14
74430;PMS7003;62863;52.062;23.764;2023-09-19T20:16:21;19.6;17.8;13.2
74430;PMS7003;62863;52.062;23.764;2023-09-19T20:21:35;15;12.2;9.6
74430;PMS7003;62863;52.062;23.764;2023-09-19T20:26:19;10.6;10.4;7.8
74430;PMS7003;62863;52.062;23.764;2023-09-19T20:31:04;10;9.2;7
74430;PMS7003;62863;52.062;23.764;2023-09-19T20:36:09;9.8;8.8;6.6
74430;PMS7003;62863;52.062;23.764;2023-09-19T20:41:05;9.4;8.6;6.2
74430;PMS7003;62863;52.062;23.764;2023-09-19T20:46:34;9.6;8.8;6
74430;PMS7003;62863;52.062;23.764;2023-09-19T20:50:51;8;7.4;5.4
74430;PMS7003;62863;52.062;23.764;2023-09-19T20:56:07;7.8;7.2;6
74430;PMS7003;62863;52.062;23.764;2023-09-19T21:01:06;8;6.8;4.5
74430;PMS7003;62863;52.062;23.764;2023-09-19T21:06:21;5.8;5;4
74430;PMS7003;62863;52.062;23.764;2023-09-19T21:11:35;7.4;6.8;5
74430;PMS7003;62863;52.062;23.764;2023-09-19T21:16:21;10.8;8.4;6.4
74430;PMS7003;62863;52.062;23.764;2023-09-19T21:21:17;8.8;8.2;6.2
74430;PMS7003;62863;52.062;23.764;2023-09-19T21:26:03;8.8;8.6;6.2
74430;PMS7003;62863;52.062;23.764;2023-09-19T21:31:06;10.4;9;6.2
74430;PMS7003;62863;52.062;23.764;2023-09-19T21:36:35;10.4;9.6;7.2
74430;PMS7003;62863;52.062;23.764;2023-09-19T21:41:06;11.4;9.8;7.6
74430;PMS7003;62863;52.062;23.764;2023-09-19T21:45:57;10.6;9.8;7.6
74430;PMS7003;62863;52.062;23.764;2023-09-19T21:51:03;11;10;7.2
74430;PMS7003;62863;52.062;23.764;2023-09-19T21:56:04;12.8;10.4;6.8
74430;PMS7003;62863;52.062;23.764;2023-09-19T22:01:15;12.8;12.3;9
74430;PMS7003;62863;52.062;23.764;2023-09-19T22:06:21;12.6;10.4;7.8
74430;PMS7003;62863;52.062;23.764;2023-09-19T22:11:19;15.2;12.6;8
74430;PMS7003;62863;52.062;23.764;2023-09-19T22:15:54;14;11.4;8.4
74430;PMS7003;62863;52.062;23.764;2023-09-19T22:21:05;14.8;12.8;8.8
74430;PMS7003;62863;52.062;23.764;2023-09-19T22:26:35;16;13;8.8
74430;PMS7003;62863;52.062;23.764;2023-09-19T22:31:22;19.4;15.4;10.4
74430;PMS7003;62863;52.062;23.764;2023-09-19T22:35:51;16.8;15.4;10
74430;PMS7003;62863;52.062;23.764;2023-09-19T22:40:51;15.2;14;10.4
74430;PMS7003;62863;52.062;23.764;2023-09-19T22:46:35;15.2;13.6;9.6
74430;PMS7003;62863;52.062;23.764;2023-09-19T22:51:35;18.4;16;10.4
74430;PMS7003;62863;52.062;23.764;2023-09-19T22:56:35;17.4;15.6;10.8
74430;PMS7003;62863;52.062;23.764;2023-09-19T23:01:35;18;14.8;10.8
74430;PMS7003;62863;52.062;23.764;2023-09-19T23:06:09;17.6;16;11.6
74430;PMS7003;62863;52.062;23.764;2023-09-19T23:10:51;19.6;16.8;12
74430;PMS7003;62863;52.062;23.764;2023-09-19T23:16:35;19.6;18.2;11.6
74430;PMS7003;62863;52.062;23.764;2023-09-19T23:20:51;18.6;16.6;11.4
74430;PMS7003;62863;52.062;23.764;2023-09-19T23:26:07;18;15;10.6
74430;PMS7003;62863;52.062;23.764;2023-09-19T23:30:57;19.6;18;12
74430;PMS7003;62863;52.062;23.764;2023-09-19T23:36:21;20.4;16;11.8
74430;PMS7003;62863;52.062;23.764;2023-09-19T23:41:33;16;14.4;11
74430;PMS7003;62863;52.062;23.764;2023-09-19T23:46:07;16.6;14.4;10.2
74430;PMS7003;62863;52.062;23.764;2023-09-19T23:51:19;18.8;16.8;11.2
74430;PMS7003;62863;52.062;23.764;2023-09-19T23:56:07;19;16;10.8
